createdAt,value
2023-04-15T00:01:53.757Z,0.37
2023-04-15T00:11:53.821Z,-0.41
2023-04-15T00:21:54.027Z,-0.41
2023-04-15T00:31:54.221Z,-0.60
2023-04-15T00:41:54.517Z,-0.60
2023-04-15T00:51:54.529Z,-0.41
2023-04-15T01:01:54.832Z,-0.60
2023-04-15T01:11:54.871Z,-0.22
2023-04-15T01:21:55.075Z,-0.22
2023-04-15T01:31:55.336Z,-0.41
2023-04-15T01:41:55.552Z,-0.60
2023-04-15T01:51:55.784Z,-0.60
2023-04-15T02:01:55.985Z,-0.41
2023-04-15T02:11:56.194Z,-0.41
2023-04-15T02:21:56.413Z,-0.41
2023-04-15T02:31:56.644Z,-0.60
2023-04-15T02:41:56.839Z,-0.60
2023-04-15T02:51:57.042Z,-1.56
2023-04-15T03:01:57.272Z,-1.56
2023-04-15T03:11:57.468Z,-1.75
2023-04-15T03:21:57.671Z,-1.56
2023-04-15T03:31:57.881Z,-1.56
2023-04-15T03:41:58.191Z,-1.56
2023-04-15T03:51:58.178Z,-1.37
2023-04-15T04:01:58.599Z,-1.56
2023-04-15T04:11:58.593Z,-1.56
2023-04-15T04:21:58.814Z,-1.56
2023-04-15T04:31:59.072Z,-1.75
2023-04-15T04:41:59.254Z,-1.37
2023-04-15T04:51:59.468Z,-1.19
2023-04-15T05:01:59.838Z,-1.75
2023-04-15T05:12:00.668Z,-1.56
2023-04-15T05:22:00.101Z,-1.56
2023-04-15T05:32:00.298Z,-1.56
2023-04-15T05:42:00.507Z,-1.94
2023-04-15T05:52:00.704Z,-0.98
2023-04-15T06:02:00.963Z,-1.38
2023-04-15T06:12:01.136Z,-1.04
2023-04-15T06:22:01.346Z,-1.04
2023-04-15T06:32:01.694Z,-1.47
2023-04-15T06:42:01.720Z,-0.30
2023-04-15T06:52:01.947Z,-0.52
2023-04-15T07:02:02.242Z,-0.74
2023-04-15T07:12:02.228Z,-0.02
2023-04-15T07:22:02.439Z,-0.24
2023-04-15T07:32:02.644Z,-0.24
2023-04-15T07:42:02.856Z,-0.01
2023-04-15T07:52:03.136Z,-0.25
2023-04-15T08:02:03.331Z,-0.01
2023-04-15T08:12:03.483Z,-0.25
2023-04-15T08:22:03.688Z,-0.25
2023-04-15T08:32:03.920Z,0.18
2023-04-15T08:42:04.102Z,-0.08
2023-04-15T08:52:04.357Z,-0.88
2023-04-15T09:02:04.576Z,-0.34
2023-04-15T09:12:04.749Z,0.31
2023-04-15T09:22:04.944Z,0.58
2023-04-15T09:32:05.129Z,0.04
2023-04-15T09:42:05.336Z,0.31
2023-04-15T09:52:06.680Z,0.68
2023-04-15T10:02:05.862Z,0.40
2023-04-15T10:12:06.064Z,0.11
2023-04-15T10:22:06.275Z,0.11
2023-04-15T10:32:06.480Z,0.37
2023-04-15T10:42:06.680Z,1.02
2023-04-15T10:52:06.902Z,1.33
2023-04-15T11:02:07.210Z,2.55
2023-04-15T11:12:07.243Z,3.15
2023-04-15T11:22:07.459Z,2.52
2023-04-15T11:32:07.727Z,2.23
2023-04-15T11:42:07.724Z,2.23
2023-04-15T11:52:07.959Z,2.81
2023-04-15T12:02:08.190Z,2.52
2023-04-15T12:12:08.377Z,2.81
2023-04-15T12:22:08.569Z,3.73
2023-04-15T12:32:08.806Z,4.01
2023-04-15T12:42:09.096Z,2.52
2023-04-15T12:52:09.291Z,3.09
2023-04-15T13:02:09.551Z,3.36
2023-04-15T13:12:09.563Z,2.52
2023-04-15T13:22:09.773Z,2.23
2023-04-15T13:32:09.970Z,3.73
2023-04-15T13:42:10.191Z,5.09
2023-04-15T13:52:10.415Z,3.15
2023-04-15T14:02:10.659Z,2.55
2023-04-15T14:12:10.856Z,2.24
2023-04-15T14:22:11.113Z,0.70
2023-04-15T14:32:12.766Z,0.70
2023-04-15T14:42:11.661Z,-0.30
2023-04-15T14:52:11.690Z,1.02
2023-04-15T15:02:14.715Z,0.70
2023-04-15T15:12:13.150Z,1.33
2023-04-15T15:22:12.479Z,0.04
2023-04-15T15:32:12.539Z,2.16
2023-04-15T15:42:12.743Z,1.60
2023-04-15T15:52:12.960Z,1.32
2023-04-15T16:02:13.269Z,1.89
2023-04-15T16:12:13.281Z,1.89
2023-04-15T16:22:13.510Z,1.89
2023-04-15T16:32:13.967Z,1.89
2023-04-15T16:42:13.832Z,0.96
2023-04-15T16:52:14.058Z,1.51
2023-04-15T17:02:14.354Z,4.45
2023-04-15T17:12:14.618Z,3.76
2023-04-15T17:22:14.509Z,4.67
2023-04-15T17:32:14.716Z,4.80
2023-04-15T17:42:15.195Z,5.97
2023-04-15T17:52:15.363Z,5.47
2023-04-15T18:02:15.410Z,5.63
2023-04-15T18:12:15.784Z,5.79
2023-04-15T18:22:15.665Z,5.63
2023-04-15T18:32:15.958Z,4.48
2023-04-15T18:42:16.221Z,4.00
2023-04-15T18:52:16.350Z,4.32
2023-04-15T19:02:16.510Z,4.32
2023-04-15T19:12:18.113Z,4.00
2023-04-15T19:22:17.603Z,4.16
2023-04-15T19:32:17.042Z,4.48
2023-04-15T19:42:17.042Z,4.64
2023-04-15T19:52:17.323Z,4.80
2023-04-15T20:02:17.401Z,4.95
2023-04-15T20:12:50.271Z,5.11
2023-04-15T20:22:18.857Z,4.95
2023-04-15T20:32:18.062Z,4.95
2023-04-15T20:42:18.167Z,5.11
2023-04-15T20:52:18.103Z,5.11
2023-04-15T21:02:18.182Z,5.26
2023-04-15T21:12:18.482Z,5.26
2023-04-15T21:22:18.359Z,5.26
2023-04-15T21:32:18.743Z,5.26
2023-04-15T21:42:18.693Z,5.26
2023-04-15T21:52:18.882Z,5.26
2023-04-15T22:02:19.163Z,5.41
2023-04-15T22:12:19.210Z,5.41
2023-04-15T22:22:19.407Z,5.26
2023-04-15T22:32:19.572Z,5.26
2023-04-15T22:42:19.766Z,5.26
2023-04-15T22:52:29.568Z,5.41
2023-04-15T23:02:21.417Z,5.41
2023-04-15T23:12:20.348Z,5.41
2023-04-15T23:22:20.582Z,5.56
2023-04-15T23:32:20.789Z,5.56
2023-04-15T23:42:20.969Z,5.56
2023-04-15T23:52:21.255Z,5.56
